Time;durP1;ratioP1;P1;durP2;ratioP2;P2;SDS_P1;SDS_P2;PMS_P1;PMS_P2;Temp;Humidity;BMP_temperature;BMP_pressure;BME280_temperature;BME280_humidity;BME280_pressure;Samples;Min_cycle;Max_cycle;Signal;HPM_P1;HPM_P2
2022/10/25 00:03:00;;;;;;;;;;;;;;;13.04;100.00;100437.31;5549721;32;34845;-69
2022/10/25 00:06:09;;;;;;;;;;;;;;;13.05;100.00;100446.97;5549697;32;34848;-69
2022/10/25 00:09:17;;;;;;;;;;;;;;;13.10;100.00;100452.59;5537404;32;34480;-69
2022/10/25 00:12:26;;;;;;;;;;;;;;;13.05;100.00;100461.13;5552264;32;34197;-69
2022/10/25 00:15:32;;;;;;;;;;;;;;;13.09;100.00;100472.22;5537962;32;35223;-69
2022/10/25 00:18:43;;;;;;;;;;;;;;;13.04;100.00;100474.59;5551945;32;33808;-69
2022/10/25 00:21:50;;;;;;;;;;;;;;;13.06;100.00;100470.78;5538176;32;34553;-69
2022/10/25 00:24:58;;;;;;;;;;;;;;;13.05;100.00;100486.94;5552230;32;34131;-69
2022/10/25 00:28:04;;;;;;;;;;;;;;;13.10;100.00;100495.19;5551925;32;34973;-70
2022/10/25 00:31:15;;;;;;;;;;;;;;;13.04;100.00;100490.59;5538214;32;35703;-69
2022/10/25 00:34:23;;;;;;;;;;;;;;;13.00;100.00;100483.97;5538239;32;34387;-69
2022/10/25 00:37:31;;;;;;;;;;;;;;;12.85;100.00;100477.78;5551928;32;34857;-69
2022/10/25 00:40:38;;;;;;;;;;;;;;;12.78;100.00;100471.53;5551912;32;34159;-69
2022/10/25 00:43:49;;;;;;;;;;;;;;;12.83;100.00;100474.50;5551970;32;34778;-69
2022/10/25 00:46:55;;;;;;;;;;;;;;;12.80;100.00;100483.66;5551958;32;34964;-69
2022/10/25 00:50:10;;;;;;;;;;;;;;;12.85;100.00;100478.63;5551845;32;34366;-69
2022/10/25 00:53:24;;;;;;;;;;;;;;;12.90;100.00;100478.06;5551972;32;34821;-69
2022/10/25 00:56:32;;;;;;;;;;;;;;;12.86;100.00;100479.44;5551828;32;34923;-69
2022/10/25 00:59:39;;;;;;;;;;;;;;;12.93;100.00;100483.84;5538120;32;34506;-70
2022/10/25 01:02:46;;;;;;;;;;;;;;;12.99;100.00;100493.78;5551668;32;34467;-69
2022/10/25 01:05:53;;;;;;;;;;;;;;;12.84;100.00;100490.28;5551801;32;34875;-69
2022/10/25 01:09:02;;;;;;;;;;;;;;;12.86;100.00;100498.09;5538060;32;34268;-69
2022/10/25 01:12:09;;;;;;;;;;;;;;;12.98;100.00;100497.47;5551670;32;34246;-69
2022/10/25 01:15:15;;;;;;;;;;;;;;;12.91;100.00;100499.22;5551694;32;34868;-69
2022/10/25 01:18:23;;;;;;;;;;;;;;;12.90;100.00;100497.53;5551458;32;34281;-70
2022/10/25 01:21:29;;;;;;;;;;;;;;;12.93;100.00;100488.34;5550561;32;34918;-69
2022/10/25 01:24:45;;;;;;;;;;;;;;;12.98;100.00;100493.97;5551603;32;34689;-69
2022/10/25 01:28:03;;;;;;;;;;;;;;;13.11;100.00;100501.34;5551573;32;34198;-70
2022/10/25 01:31:23;;;;;;;;;;;;;;;13.10;100.00;100495.19;5551483;32;34362;-70
2022/10/25 01:34:33;;;;;;;;;;;;;;;13.16;100.00;100491.84;5551508;32;34519;-70
2022/10/25 01:37:39;;;;;;;;;;;;;;;13.34;100.00;100486.16;5551531;32;34197;-70
2022/10/25 01:41:19;;;;;;;;;;;;;;;13.38;100.00;100482.94;5551371;32;34301;-70
2022/10/25 01:44:30;;;;;;;;;;;;;;;13.45;100.00;100480.38;5540757;32;34261;-70
2022/10/25 01:47:51;;;;;;;;;;;;;;;13.45;100.00;100485.72;5551369;32;34692;-70
2022/10/25 01:51:09;;;;;;;;;;;;;;;13.44;100.00;100500.03;5551351;32;35005;-70
2022/10/25 01:54:17;;;;;;;;;;;;;;;13.42;100.00;100494.87;5537314;32;35216;-70
2022/10/25 01:57:38;;;;;;;;;;;;;;;13.37;100.00;100491.94;5551255;32;34922;-70
2022/10/25 02:00:54;;;;;;;;;;;;;;;13.40;100.00;100486.28;5551227;32;34603;-70
2022/10/25 02:04:08;;;;;;;;;;;;;;;13.37;100.00;100485.78;5551359;32;34902;-69
2022/10/25 02:07:19;;;;;;;;;;;;;;;13.35;100.00;100486.00;5551203;32;34787;-70
2022/10/25 02:10:31;;;;;;;;;;;;;;;13.26;100.00;100486.25;5537573;32;33910;-70
2022/10/25 02:13:38;;;;;;;;;;;;;;;13.21;100.00;100478.81;5551316;32;34825;-70
2022/10/25 02:16:49;;;;;;;;;;;;;;;13.28;100.00;100474.41;5537955;32;34998;-70
2022/10/25 02:19:58;;;;;;;;;;;;;;;13.21;100.00;100478.00;5536729;32;34588;-70
2022/10/25 02:23:04;;;;;;;;;;;;;;;13.11;100.00;100474.72;5551204;32;34299;-69
2022/10/25 02:26:13;;;;;;;;;;;;;;;13.05;100.00;100479.75;5551351;32;34628;-70
2022/10/25 02:29:20;;;;;;;;;;;;;;;13.01;100.00;100467.81;5537703;32;34282;-70
2022/10/25 02:32:27;;;;;;;;;;;;;;;13.05;100.00;100473.59;5551001;32;34306;-70
2022/10/25 02:35:33;;;;;;;;;;;;;;;13.02;100.00;100474.78;5551298;32;34345;-70
2022/10/25 02:38:43;;;;;;;;;;;;;;;12.96;100.00;100469.38;5537067;32;35433;-70
2022/10/25 02:41:52;;;;;;;;;;;;;;;12.94;100.00;100472.22;5536840;32;33267;-70
2022/10/25 02:45:00;;;;;;;;;;;;;;;12.96;100.00;100466.72;5550876;32;34250;-70
2022/10/25 02:48:05;;;;;;;;;;;;;;;12.99;100.00;100461.00;5537166;32;34513;-70
2022/10/25 02:51:13;;;;;;;;;;;;;;;12.93;100.00;100461.72;5550906;32;34895;-70
2022/10/25 02:54:21;;;;;;;;;;;;;;;12.94;100.00;100463.38;5550913;32;34375;-70
2022/10/25 02:57:34;;;;;;;;;;;;;;;12.89;100.00;100461.28;5550795;32;34709;-70
2022/10/25 03:00:41;;;;;;;;;;;;;;;12.88;100.00;100478.25;5550767;32;34820;-70
2022/10/25 03:03:47;;;;;;;;;;;;;;;13.03;100.00;100463.13;5536751;32;34307;-70
2022/10/25 03:06:54;;;;;;;;;;;;;;;12.97;100.00;100460.37;5550695;32;34614;-70
2022/10/25 03:10:01;;;;;;;;;;;;;;;12.89;100.00;100468.44;5536914;32;35615;-70
2022/10/25 03:13:08;;;;;;;;;;;;;;;13.00;100.00;100486.62;5550962;32;34536;-70
2022/10/25 03:16:18;;;;;;;;;;;;;;;12.96;100.00;100494.16;5550567;32;34285;-70
2022/10/25 03:19:25;;;;;;;;;;;;;;;13.06;100.00;100488.59;5550533;32;34324;-70
2022/10/25 03:22:31;;;;;;;;;;;;;;;13.14;100.00;100493.84;5550396;32;34258;-70
2022/10/25 03:25:37;;;;;;;;;;;;;;;13.29;100.00;100488.53;5550355;32;34519;-71
2022/10/25 03:28:45;;;;;;;;;;;;;;;13.40;100.00;100490.78;5550145;32;34403;-71
2022/10/25 03:31:51;;;;;;;;;;;;;;;13.52;100.00;100469.78;5550163;32;34358;-71
2022/10/25 03:35:01;;;;;;;;;;;;;;;13.57;100.00;100473.56;5550103;32;34659;-71
2022/10/25 03:38:07;;;;;;;;;;;;;;;13.68;100.00;100473.09;5550065;32;34459;-72
2022/10/25 03:41:14;;;;;;;;;;;;;;;13.68;100.00;100480.28;5549968;32;34470;-72
2022/10/25 03:44:24;;;;;;;;;;;;;;;13.67;100.00;100494.63;5535309;32;35354;-71
2022/10/25 03:47:31;;;;;;;;;;;;;;;13.69;100.00;100504.09;5549799;32;34337;-71
2022/10/25 03:50:38;;;;;;;;;;;;;;;13.69;100.00;100495.25;5536158;32;35222;-70
2022/10/25 03:53:43;;;;;;;;;;;;;;;13.70;100.00;100507.59;5549986;32;34148;-70
2022/10/25 03:56:49;;;;;;;;;;;;;;;13.74;100.00;100511.53;5550148;32;34331;-70
2022/10/25 04:00:00;;;;;;;;;;;;;;;13.75;100.00;100498.00;5549725;32;34879;-69
2022/10/25 04:03:14;;;;;;;;;;;;;;;13.72;100.00;100479.72;5549613;32;34904;-71
2022/10/25 04:06:20;;;;;;;;;;;;;;;13.73;100.00;100472.56;5549584;32;34995;-70
2022/10/25 04:09:25;;;;;;;;;;;;;;;13.65;100.00;100468.13;5549539;32;34564;-70
2022/10/25 04:12:30;;;;;;;;;;;;;;;13.68;100.00;100465.09;5549492;32;35056;-70
2022/10/25 04:15:37;;;;;;;;;;;;;;;13.69;100.00;100480.09;5549626;32;34229;-70
2022/10/25 04:18:45;;;;;;;;;;;;;;;13.65;100.00;100476.12;5536283;32;34708;-70
2022/10/25 04:21:53;;;;;;;;;;;;;;;13.69;100.00;100479.28;5549129;32;34943;-70
2022/10/25 04:25:02;;;;;;;;;;;;;;;13.65;100.00;100475.31;5549327;32;34899;-71
2022/10/25 04:28:08;;;;;;;;;;;;;;;13.68;100.00;100474.94;5549401;32;34418;-71
2022/10/25 04:31:13;;;;;;;;;;;;;;;13.64;100.00;100469.16;5549244;32;34964;-71
2022/10/25 04:34:19;;;;;;;;;;;;;;;13.70;100.00;100475.59;5535302;32;33903;-70
2022/10/25 04:37:26;;;;;;;;;;;;;;;13.70;100.00;100480.94;5549018;32;34421;-70
2022/10/25 04:40:32;;;;;;;;;;;;;;;13.66;100.00;100482.28;5549214;32;34196;-71
2022/10/25 04:43:38;;;;;;;;;;;;;;;13.60;100.00;100478.56;5548632;32;34406;-71
2022/10/25 04:46:52;;;;;;;;;;;;;;;13.58;100.00;100479.72;5549059;32;34127;-71
2022/10/25 04:49:58;;;;;;;;;;;;;;;13.56;100.00;100487.06;5549382;32;34197;-70
2022/10/25 04:53:04;;;;;;;;;;;;;;;13.55;100.00;100491.59;5548765;32;34607;-71
2022/10/25 04:56:13;;;;;;;;;;;;;;;13.58;100.00;100491.22;5550824;32;34485;-69
2022/10/25 04:59:18;;;;;;;;;;;;;;;13.61;100.00;100488.19;5538115;32;34841;-70
2022/10/25 05:02:23;;;;;;;;;;;;;;;13.64;100.00;100479.00;5537566;32;34467;-70
2022/10/25 05:05:29;;;;;;;;;;;;;;;13.52;100.00;100475.13;5551664;32;34363;-70
2022/10/25 05:08:34;;;;;;;;;;;;;;;13.46;100.00;100485.50;5538266;32;34170;-70
2022/10/25 05:11:38;;;;;;;;;;;;;;;13.43;100.00;100496.56;5551460;32;34299;-70
2022/10/25 05:14:44;;;;;;;;;;;;;;;13.37;100.00;100504.44;5551720;32;35254;-70
2022/10/25 05:17:49;;;;;;;;;;;;;;;13.35;100.00;100488.66;5551214;32;34260;-70
2022/10/25 05:20:55;;;;;;;;;;;;;;;13.38;100.00;100498.09;5551426;32;34795;-70
2022/10/25 05:24:00;;;;;;;;;;;;;;;13.33;100.00;100489.84;5551617;32;34300;-70
2022/10/25 05:27:04;;;;;;;;;;;;;;;13.34;100.00;100491.50;5551543;32;34835;-71
2022/10/25 05:30:09;;;;;;;;;;;;;;;13.36;100.00;100484.94;5537058;32;34283;-70
2022/10/25 05:33:15;;;;;;;;;;;;;;;13.39;100.00;100502.44;5551265;32;34336;-70
2022/10/25 05:36:20;;;;;;;;;;;;;;;13.46;100.00;100508.66;5551100;32;34184;-70
2022/10/25 05:39:24;;;;;;;;;;;;;;;13.54;100.00;100510.44;5551333;32;34852;-70
2022/10/25 05:42:28;;;;;;;;;;;;;;;13.52;100.00;100525.78;5551138;32;34299;-71
2022/10/25 05:45:31;;;;;;;;;;;;;;;13.56;100.00;100538.53;5550854;32;34455;-70
2022/10/25 05:48:35;;;;;;;;;;;;;;;13.63;100.00;100551.97;5551282;32;34446;-71
2022/10/25 05:51:39;;;;;;;;;;;;;;;13.62;100.00;100567.16;5537025;32;34143;-71
2022/10/25 05:54:43;;;;;;;;;;;;;;;13.64;100.00;100578.47;5550915;32;34346;-70
2022/10/25 05:57:51;;;;;;;;;;;;;;;13.76;100.00;100593.00;5537360;32;35153;-70
2022/10/25 06:00:57;;;;;;;;;;;;;;;13.75;100.00;100602.00;5537219;32;35202;-70
2022/10/25 06:04:02;;;;;;;;;;;;;;;13.78;100.00;100601.66;5537019;32;35052;-71
2022/10/25 06:07:06;;;;;;;;;;;;;;;13.84;100.00;100597.41;5536962;32;34317;-71
2022/10/25 06:10:11;;;;;;;;;;;;;;;13.87;100.00;100599.72;5550327;32;34928;-70
2022/10/25 06:13:14;;;;;;;;;;;;;;;13.85;100.00;100583.88;5550856;32;35014;-71
2022/10/25 06:16:19;;;;;;;;;;;;;;;13.81;100.00;100587.94;5550722;32;34871;-70
2022/10/25 06:19:23;;;;;;;;;;;;;;;13.86;100.00;100604.22;5550391;32;34721;-70
2022/10/25 06:22:27;;;;;;;;;;;;;;;13.74;100.00;100620.84;5551418;32;34970;-71
2022/10/25 06:25:31;;;;;;;;;;;;;;;13.83;100.00;100641.94;5536960;32;37081;-70
2022/10/25 06:28:35;;;;;;;;;;;;;;;13.73;100.00;100633.34;5550583;32;34140;-69
2022/10/25 06:31:41;;;;;;;;;;;;;;;13.71;100.00;100651.38;5537388;32;34514;-70
2022/10/25 06:34:45;;;;;;;;;;;;;;;13.74;100.00;100647.53;5550620;32;34190;-69
2022/10/25 06:37:48;;;;;;;;;;;;;;;13.82;100.00;100639.44;5550583;32;34858;-71
2022/10/25 06:41:00;;;;;;;;;;;;;;;13.84;100.00;100637.41;5550588;32;34231;-70
2022/10/25 06:44:03;;;;;;;;;;;;;;;14.00;100.00;100650.56;5536529;32;34896;-72
2022/10/25 06:47:10;;;;;;;;;;;;;;;14.03;100.00;100650.22;5550607;32;35168;-72
2022/10/25 06:50:20;;;;;;;;;;;;;;;14.04;100.00;100648.38;5550629;32;34878;-71
2022/10/25 06:53:25;;;;;;;;;;;;;;;14.03;100.00;100649.38;5550724;32;34336;-70
2022/10/25 06:56:28;;;;;;;;;;;;;;;13.91;100.00;100644.50;5550414;32;34455;-71
2022/10/25 06:59:33;;;;;;;;;;;;;;;14.02;100.00;100645.88;5550559;32;34332;-70
2022/10/25 07:02:36;;;;;;;;;;;;;;;14.10;100.00;100640.44;5550337;32;34710;-70
2022/10/25 07:05:39;;;;;;;;;;;;;;;13.98;100.00;100636.59;5550469;32;34282;-71
2022/10/25 07:08:44;;;;;;;;;;;;;;;14.07;100.00;100632.00;5550472;32;34267;-70
2022/10/25 07:11:48;;;;;;;;;;;;;;;14.20;100.00;100637.50;5550413;32;34296;-71
2022/10/25 07:14:51;;;;;;;;;;;;;;;14.25;100.00;100632.44;5550454;32;34938;-70
2022/10/25 07:17:56;;;;;;;;;;;;;;;14.16;100.00;100631.72;5548618;32;35193;-69
2022/10/25 07:21:00;;;;;;;;;;;;;;;14.21;100.00;100631.16;5550446;32;34869;-70
2022/10/25 07:24:03;;;;;;;;;;;;;;;14.25;100.00;100635.94;5550024;32;34838;-70
2022/10/25 07:27:06;;;;;;;;;;;;;;;14.16;100.00;100642.38;5550388;32;34264;-70
2022/10/25 07:30:10;;;;;;;;;;;;;;;14.21;100.00;100642.66;5536213;32;34303;-71
2022/10/25 07:33:16;;;;;;;;;;;;;;;14.25;100.00;100646.63;5536581;32;35135;-70
2022/10/25 07:36:20;;;;;;;;;;;;;;;14.28;100.00;100640.91;5523751;32;34157;-70
2022/10/25 07:39:25;;;;;;;;;;;;;;;14.32;100.00;100644.88;5536549;32;34877;-70
2022/10/25 07:42:29;;;;;;;;;;;;;;;14.29;100.00;100655.06;5536446;32;34219;-70
2022/10/25 07:45:33;;;;;;;;;;;;;;;14.30;100.00;100654.91;5535940;32;35056;-69
2022/10/25 07:48:38;;;;;;;;;;;;;;;14.37;100.00;100651.53;5549911;32;34441;-70
2022/10/25 07:51:42;;;;;;;;;;;;;;;14.59;100.00;100664.75;5549851;32;34235;-70
2022/10/25 07:54:47;;;;;;;;;;;;;;;14.70;100.00;100672.28;5523672;32;35246;-71
2022/10/25 07:57:50;;;;;;;;;;;;;;;14.80;100.00;100661.31;5535726;32;34701;-71
2022/10/25 08:01:01;;;;;;;;;;;;;;;15.02;100.00;100670.16;5549848;32;34140;-70
2022/10/25 08:04:05;;;;;;;;;;;;;;;15.15;100.00;100679.12;5549267;32;34369;-71
2022/10/25 08:07:08;;;;;;;;;;;;;;;15.17;100.00;100686.97;5535372;32;34308;-70
2022/10/25 08:10:11;;;;;;;;;;;;;;;15.14;100.00;100682.84;5549940;32;34754;-71
2022/10/25 08:13:15;;;;;;;;;;;;;;;15.15;100.00;100689.03;5549869;32;34709;-70
2022/10/25 08:16:20;;;;;;;;;;;;;;;14.99;100.00;100694.59;5535697;32;32905;-71
2022/10/25 08:19:23;;;;;;;;;;;;;;;14.75;100.00;100679.72;5548939;32;34492;-70
2022/10/25 08:22:28;;;;;;;;;;;;;;;14.70;100.00;100682.13;5535729;32;35809;-69
2022/10/25 08:25:31;;;;;;;;;;;;;;;14.67;100.00;100691.31;5549123;32;34725;-70
2022/10/25 08:28:37;;;;;;;;;;;;;;;14.58;100.00;100683.59;5534958;32;35146;-70
2022/10/25 08:31:40;;;;;;;;;;;;;;;14.69;100.00;100680.47;5551963;32;34944;-71
2022/10/25 08:34:43;;;;;;;;;;;;;;;14.69;100.00;100675.97;5538083;32;34432;-70
2022/10/25 08:37:47;;;;;;;;;;;;;;;14.67;100.00;100669.97;5538272;32;34883;-70
2022/10/25 08:41:00;;;;;;;;;;;;;;;14.48;100.00;100661.72;5551763;32;34341;-70
2022/10/25 08:44:13;;;;;;;;;;;;;;;14.61;100.00;100667.22;5551658;32;34337;-70
2022/10/25 08:47:19;;;;;;;;;;;;;;;14.73;100.00;100679.06;5537577;32;33375;-70
2022/10/25 08:50:31;;;;;;;;;;;;;;;14.73;100.00;100681.75;5537767;32;34562;-69
2022/10/25 08:53:38;;;;;;;;;;;;;;;14.73;100.00;100687.91;5537740;32;34037;-69
2022/10/25 08:56:41;;;;;;;;;;;;;;;14.91;100.00;100698.19;5551531;32;34970;-70
2022/10/25 09:00:16;;;;;;;;;;;;;;;15.16;100.00;100702.16;5551734;32;34366;-70
2022/10/25 09:03:24;;;;;;;;;;;;;;;15.16;100.00;100702.16;5537515;32;34358;-70
2022/10/25 09:06:34;;;;;;;;;;;;;;;15.18;100.00;100705.50;5537515;32;34735;-70
2022/10/25 09:09:37;;;;;;;;;;;;;;;15.42;100.00;100716.84;5551455;32;34487;-69
2022/10/25 09:12:49;;;;;;;;;;;;;;;15.40;100.00;100716.19;5551632;32;34121;-69
2022/10/25 09:15:56;;;;;;;;;;;;;;;15.46;100.00;100715.44;5537520;32;34220;-69
2022/10/25 09:19:02;;;;;;;;;;;;;;;15.41;100.00;100721.34;5551040;32;34542;-69
2022/10/25 09:22:10;;;;;;;;;;;;;;;15.38;100.00;100721.75;5537170;32;34551;-70
2022/10/25 09:25:17;;;;;;;;;;;;;;;15.18;100.00;100716.19;5551728;32;34867;-71
2022/10/25 09:28:36;;;;;;;;;;;;;;;15.17;100.00;100716.38;5551595;32;34954;-70
2022/10/25 09:31:42;;;;;;;;;;;;;;;15.04;100.00;100708.22;5537261;32;34573;-70
2022/10/25 09:34:46;;;;;;;;;;;;;;;15.06;100.00;100711.50;5551115;32;34916;-70
2022/10/25 09:37:59;;;;;;;;;;;;;;;14.90;100.00;100712.59;5551574;32;34810;-70
2022/10/25 09:41:05;;;;;;;;;;;;;;;15.04;100.00;100702.88;5552003;32;34856;-70
2022/10/25 09:44:14;;;;;;;;;;;;;;;15.11;100.00;100714.44;5537843;32;34850;-70
2022/10/25 09:47:19;;;;;;;;;;;;;;;14.86;100.00;100713.16;5551623;32;34378;-70
2022/10/25 09:50:30;;;;;;;;;;;;;;;15.05;100.00;100724.06;5551124;32;34177;-71
2022/10/25 09:53:36;;;;;;;;;;;;;;;15.16;100.00;100722.72;5551208;32;34989;-71
2022/10/25 09:56:39;;;;;;;;;;;;;;;15.20;100.00;100716.81;5537572;32;35274;-71
2022/10/25 09:59:45;;;;;;;;;;;;;;;15.34;100.00;100715.13;5551047;32;34213;-70
2022/10/25 10:02:49;;;;;;;;;;;;;;;15.36;100.00;100722.94;5551184;32;34902;-71
2022/10/25 10:05:57;;;;;;;;;;;;;;;15.26;100.00;100733.09;5551327;32;34393;-71
2022/10/25 10:09:05;;;;;;;;;;;;;;;15.19;100.00;100722.38;5551101;32;34268;-70
2022/10/25 10:12:29;;;;;;;;;;;;;;;15.18;100.00;100742.09;5550930;32;34181;-71
2022/10/25 10:15:37;;;;;;;;;;;;;;;15.26;100.00;100744.63;5550937;32;34335;-68
2022/10/25 10:18:43;;;;;;;;;;;;;;;15.23;100.00;100742.34;5536369;32;32910;-69
2022/10/25 10:21:49;;;;;;;;;;;;;;;15.12;100.00;100737.47;5550764;32;34376;-69
2022/10/25 10:24:58;;;;;;;;;;;;;;;15.15;100.00;100739.81;5550657;32;34370;-69
2022/10/25 10:28:01;;;;;;;;;;;;;;;15.20;100.00;100732.84;5550607;32;34284;-69
2022/10/25 10:31:07;;;;;;;;;;;;;;;15.23;100.00;100723.62;5537038;32;34471;-69
2022/10/25 10:34:22;;;;;;;;;;;;;;;15.32;100.00;100719.81;5536848;32;34749;-69
2022/10/25 10:37:30;;;;;;;;;;;;;;;15.25;100.00;100721.59;5550504;32;34189;-69
2022/10/25 10:40:33;;;;;;;;;;;;;;;15.18;100.00;100723.38;5536902;32;35555;-69
2022/10/25 10:43:35;;;;;;;;;;;;;;;15.37;100.00;100722.75;5536383;32;34854;-69
2022/10/25 10:46:46;;;;;;;;;;;;;;;15.48;100.00;100716.06;5550487;32;34964;-70
2022/10/25 10:49:49;;;;;;;;;;;;;;;15.40;100.00;100722.34;5536840;32;34439;-69
2022/10/25 10:52:59;;;;;;;;;;;;;;;15.33;100.00;100731.34;5550121;32;34255;-70
2022/10/25 10:56:04;;;;;;;;;;;;;;;15.44;100.00;100741.53;5536392;32;36749;-70
2022/10/25 10:59:23;;;;;;;;;;;;;;;16.01;100.00;100739.63;5550624;32;34205;-71
2022/10/25 11:02:29;;;;;;;;;;;;;;;17.32;100.00;100736.81;5536614;32;34036;-70
2022/10/25 11:05:34;;;;;;;;;;;;;;;19.67;87.17;100742.91;5550171;32;34936;-70
2022/10/25 11:08:38;;;;;;;;;;;;;;;20.03;82.31;100750.28;5535988;32;34444;-70
2022/10/25 11:11:42;;;;;;;;;;;;;;;18.81;88.69;100745.22;5536605;32;34360;-70
2022/10/25 11:14:45;;;;;;;;;;;;;;;19.98;82.54;100752.81;5549684;32;34376;-70
2022/10/25 11:17:53;;;;;;;;;;;;;;;22.64;72.31;100738.78;5549946;32;34672;-72
2022/10/25 11:21:02;;;;;;;;;;;;;;;25.55;55.03;100747.50;5550208;32;34377;-71
2022/10/25 11:24:17;;;;;;;;;;;;;;;26.11;53.47;100747.94;5550058;32;34965;-71
2022/10/25 11:27:40;;;;;;;;;;;;;;;29.31;44.39;100748.81;5550335;32;34445;-71
2022/10/25 11:31:02;;;;;;;;;;;;;;;29.35;42.89;100747.16;5549467;32;35032;-71
2022/10/25 11:34:08;;;;;;;;;;;;;;;26.06;49.25;100732.41;5549920;32;34596;-71
2022/10/25 11:37:20;;;;;;;;;;;;;;;25.65;51.23;100739.44;5549968;32;34641;-71
2022/10/25 11:40:33;;;;;;;;;;;;;;;26.68;49.00;100729.81;5549891;32;34667;-71
2022/10/25 11:43:45;;;;;;;;;;;;;;;27.75;45.62;100744.56;5549495;32;35063;-71
2022/10/25 11:46:48;;;;;;;;;;;;;;;25.67;50.58;100734.53;5549751;32;35028;-71
2022/10/25 11:50:03;;;;;;;;;;;;;;;25.77;51.23;100736.53;5549637;32;34905;-70
2022/10/25 11:53:06;;;;;;;;;;;;;;;26.80;47.84;100733.13;5549735;32;34752;-70
2022/10/25 11:56:22;;;;;;;;;;;;;;;26.90;47.58;100731.56;5549788;32;34270;-70
2022/10/25 11:59:37;;;;;;;;;;;;;;;28.57;44.08;100731.63;5549519;32;35126;-70
2022/10/25 12:02:52;;;;;;;;;;;;;;;25.73;50.70;100725.37;5549724;32;34200;-70
2022/10/25 12:06:04;;;;;;;;;;;;;;;23.38;57.82;100718.09;5551214;32;34894;-70
2022/10/25 12:09:19;;;;;;;;;;;;;;;21.20;65.83;100715.81;5552666;32;34720;-69
2022/10/25 12:12:25;;;;;;;;;;;;;;;21.17;67.09;100715.47;5552040;32;34856;-69
2022/10/25 12:15:35;;;;;;;;;;;;;;;19.73;70.69;100713.25;5552001;32;34371;-68
2022/10/25 12:18:49;;;;;;;;;;;;;;;18.81;76.06;100712.97;5551696;32;34721;-67
2022/10/25 12:21:58;;;;;;;;;;;;;;;18.44;77.28;100707.28;5552113;32;34283;-68
2022/10/25 12:25:03;;;;;;;;;;;;;;;18.24;79.29;100718.06;5551672;32;34468;-71
2022/10/25 12:28:25;;;;;;;;;;;;;;;18.42;79.54;100722.78;5537393;32;34424;-68
2022/10/25 12:31:36;;;;;;;;;;;;;;;18.55;77.64;100714.69;5538220;32;35394;-69
2022/10/25 12:34:44;;;;;;;;;;;;;;;18.30;78.57;100708.31;5525698;32;34248;-69
2022/10/25 12:37:51;;;;;;;;;;;;;;;18.22;80.33;100713.94;5552115;32;34579;-69
2022/10/25 12:41:08;;;;;;;;;;;;;;;18.38;79.79;100718.84;5551875;32;34488;-69
2022/10/25 12:44:31;;;;;;;;;;;;;;;18.34;81.98;100717.63;5551473;32;34164;-69
2022/10/25 12:47:36;;;;;;;;;;;;;;;18.25;82.66;100718.87;5551717;32;34827;-68
2022/10/25 12:50:40;;;;;;;;;;;;;;;18.37;81.71;100719.06;5551448;32;34676;-68
2022/10/25 12:53:50;;;;;;;;;;;;;;;18.08;81.94;100713.12;5551439;32;34810;-68
2022/10/25 12:57:10;;;;;;;;;;;;;;;18.19;81.68;100714.34;5538107;32;34713;-68
2022/10/25 13:00:20;;;;;;;;;;;;;;;18.57;79.54;100712.63;5538067;32;33802;-69
2022/10/25 13:03:42;;;;;;;;;;;;;;;18.50;79.15;100702.91;5537191;32;34281;-69
2022/10/25 13:06:49;;;;;;;;;;;;;;;18.39;78.83;100714.31;5551241;32;34751;-69
2022/10/25 13:10:00;;;;;;;;;;;;;;;18.37;78.29;100701.09;5537896;32;34235;-70
2022/10/25 13:13:05;;;;;;;;;;;;;;;18.23;80.22;100697.63;5537411;32;34881;-68
2022/10/25 13:16:09;;;;;;;;;;;;;;;18.17;79.38;100695.75;5537336;32;34423;-67
2022/10/25 13:19:12;;;;;;;;;;;;;;;18.06;80.02;100711.66;5537141;32;34539;-68
2022/10/25 13:22:39;;;;;;;;;;;;;;;17.96;80.17;100711.28;5550968;32;34852;-69
2022/10/25 13:25:47;;;;;;;;;;;;;;;17.95;81.00;100705.09;5537405;32;34240;-69
2022/10/25 13:28:55;;;;;;;;;;;;;;;17.90;80.96;100701.37;5551204;32;35139;-68
2022/10/25 13:32:14;;;;;;;;;;;;;;;17.83;81.57;100709.41;5551113;32;34886;-70
2022/10/25 13:35:20;;;;;;;;;;;;;;;17.83;82.68;100698.69;5551007;32;34532;-70
2022/10/25 13:38:33;;;;;;;;;;;;;;;17.78;83.37;100703.84;5551294;32;34709;-69
2022/10/25 13:41:44;;;;;;;;;;;;;;;17.73;85.40;100704.47;5551108;32;34649;-69
2022/10/25 13:44:54;;;;;;;;;;;;;;;17.73;85.95;100701.78;5537635;32;34886;-68
2022/10/25 13:48:07;;;;;;;;;;;;;;;17.69;86.73;100715.81;5550955;32;34347;-69
2022/10/25 13:51:18;;;;;;;;;;;;;;;17.69;86.43;100718.50;5536775;32;34704;-69
2022/10/25 13:54:23;;;;;;;;;;;;;;;17.68;86.07;100725.72;5537187;32;34612;-69
2022/10/25 13:57:46;;;;;;;;;;;;;;;17.67;85.23;100724.06;5550422;32;34825;-69
2022/10/25 14:00:50;;;;;;;;;;;;;;;17.58;86.83;100711.84;5550363;32;34967;-69
2022/10/25 14:04:00;;;;;;;;;;;;;;;17.51;87.70;100719.09;5537352;32;34315;-69
2022/10/25 14:07:22;;;;;;;;;;;;;;;17.50;86.23;100727.31;5550161;32;34433;-68
2022/10/25 14:10:33;;;;;;;;;;;;;;;17.53;86.39;100719.69;5550317;32;34381;-69
2022/10/25 14:13:47;;;;;;;;;;;;;;;17.50;86.19;100719.28;5550173;32;34334;-69
2022/10/25 14:16:54;;;;;;;;;;;;;;;17.36;86.81;100721.94;5537449;32;34310;-69
2022/10/25 14:20:07;;;;;;;;;;;;;;;17.45;85.72;100722.56;5550318;32;34328;-69
2022/10/25 14:23:19;;;;;;;;;;;;;;;17.41;86.06;100726.69;5549951;32;34851;-69
2022/10/25 14:26:24;;;;;;;;;;;;;;;17.31;85.83;100729.78;5536384;32;35132;-69
2022/10/25 14:29:28;;;;;;;;;;;;;;;17.27;86.07;100730.38;5550123;32;34664;-70
2022/10/25 14:32:32;;;;;;;;;;;;;;;17.30;87.05;100733.47;5550595;32;34931;-68
2022/10/25 14:35:44;;;;;;;;;;;;;;;17.24;87.50;100738.81;5535935;32;34938;-69
2022/10/25 14:38:50;;;;;;;;;;;;;;;17.18;88.60;100739.66;5536289;32;34154;-69
2022/10/25 14:41:56;;;;;;;;;;;;;;;17.05;89.43;100739.59;5550203;32;34876;-69
2022/10/25 14:45:01;;;;;;;;;;;;;;;17.04;91.47;100733.41;5523495;32;33075;-68
2022/10/25 14:48:09;;;;;;;;;;;;;;;16.92;91.36;100738.53;5549712;32;34952;-69
2022/10/25 14:51:33;;;;;;;;;;;;;;;16.91;92.42;100734.19;5549935;32;34864;-68
2022/10/25 14:54:38;;;;;;;;;;;;;;;16.85;92.75;100731.47;5550091;32;34273;-68
2022/10/25 14:57:44;;;;;;;;;;;;;;;16.89;91.18;100743.47;5550152;32;34587;-69
2022/10/25 15:01:00;;;;;;;;;;;;;;;16.82;92.23;100732.72;5550165;32;34918;-69
2022/10/25 15:04:04;;;;;;;;;;;;;;;16.73;92.98;100739.25;5550177;32;34811;-69
2022/10/25 15:07:19;;;;;;;;;;;;;;;16.66;94.34;100741.06;5550187;32;34362;-69
2022/10/25 15:10:29;;;;;;;;;;;;;;;16.55;94.74;100738.13;5535926;32;33107;-69
2022/10/25 15:13:40;;;;;;;;;;;;;;;16.49;93.74;100740.56;5549668;32;34636;-69
2022/10/25 15:16:46;;;;;;;;;;;;;;;16.44;93.48;100732.28;5536184;32;34412;-69
2022/10/25 15:20:10;;;;;;;;;;;;;;;16.33;94.64;100735.50;5529626;32;35258;-69
2022/10/25 15:23:22;;;;;;;;;;;;;;;16.31;92.77;100742.91;5530516;32;34944;-68
2022/10/25 15:26:29;;;;;;;;;;;;;;;16.34;92.07;100742.50;5516621;32;34832;-68
2022/10/25 15:29:41;;;;;;;;;;;;;;;16.38;91.15;100740.25;5516528;32;35403;-69
2022/10/25 15:32:47;;;;;;;;;;;;;;;16.33;92.06;100745.37;5530221;32;34702;-69
2022/10/25 15:36:00;;;;;;;;;;;;;;;16.29;91.66;100753.00;5529998;32;34963;-69
2022/10/25 15:39:15;;;;;;;;;;;;;;;16.16;92.93;100754.75;5529178;32;34253;-69
2022/10/25 15:42:21;;;;;;;;;;;;;;;16.17;92.59;100762.56;5530158;32;35055;-69
2022/10/25 15:45:27;;;;;;;;;;;;;;;15.83;95.54;100757.97;5516265;32;34196;-69
2022/10/25 15:48:33;;;;;;;;;;;;;;;15.59;98.25;100759.19;5516198;32;34682;-69
2022/10/25 15:51:41;;;;;;;;;;;;;;;15.46;99.29;100761.72;5530124;32;34979;-69
2022/10/25 15:54:48;;;;;;;;;;;;;;;15.53;98.86;100762.66;5516213;32;35840;-69
2022/10/25 15:57:54;;;;;;;;;;;;;;;15.50;98.60;100762.16;5529939;32;34804;-69
2022/10/25 16:01:01;;;;;;;;;;;;;;;15.39;99.36;100766.19;5516221;32;35200;-69